createdAt,value
2018-04-25T00:02:09.247Z,12.90
2018-04-25T00:04:37.529Z,12.70
2018-04-25T00:07:05.804Z,12.70
2018-04-25T00:09:34.111Z,12.70
2018-04-25T00:12:01.621Z,12.70
2018-04-25T00:14:29.129Z,12.70
2018-04-25T00:16:56.650Z,12.70
2018-04-25T00:19:24.168Z,12.60
2018-04-25T00:21:51.696Z,12.60
2018-04-25T00:24:19.219Z,12.70
2018-04-25T00:26:46.746Z,12.60
2018-04-25T00:29:14.260Z,12.60
2018-04-25T00:31:41.801Z,12.60
2018-04-25T00:34:09.313Z,12.60
2018-04-25T00:36:36.916Z,12.60
2018-04-25T00:39:04.438Z,12.50
2018-04-25T00:41:31.938Z,12.40
2018-04-25T00:43:59.463Z,12.20
2018-04-25T00:46:27.074Z,12.10
2018-04-25T00:48:54.601Z,12.00
2018-04-25T00:51:22.107Z,11.90
2018-04-25T00:53:49.635Z,11.80
2018-04-25T00:56:17.917Z,11.90
2018-04-25T00:58:46.201Z,11.90
2018-04-25T01:01:14.627Z,11.80
2018-04-25T01:03:42.145Z,11.90
2018-04-25T01:06:10.434Z,12.00
2018-04-25T01:08:38.708Z,12.10
2018-04-25T01:11:06.999Z,12.10
2018-04-25T01:13:35.290Z,12.10
2018-04-25T01:16:02.820Z,12.10
2018-04-25T01:18:31.074Z,12.20
2018-04-25T01:20:58.600Z,12.20
2018-04-25T01:23:26.116Z,12.30
2018-04-25T01:26:00.026Z,12.30
2018-04-25T01:28:33.208Z,12.40
2018-04-25T01:31:01.659Z,12.40
2018-04-25T01:33:29.923Z,12.50
2018-04-25T01:35:58.370Z,12.50
2018-04-25T01:38:39.016Z,12.40
2018-04-25T01:41:08.008Z,12.40
2018-04-25T01:43:35.533Z,12.40
2018-04-25T01:46:07.879Z,12.30
2018-04-25T01:51:46.407Z,12.30
2018-04-25T01:54:26.411Z,12.30
2018-04-25T01:57:05.968Z,12.20
2018-04-25T01:59:46.029Z,12.30
2018-04-25T02:02:13.820Z,12.30
2018-04-25T02:04:42.103Z,12.30
2018-04-25T02:07:10.366Z,12.40
2018-04-25T02:09:37.909Z,12.30
2018-04-25T02:12:05.421Z,12.40
2018-04-25T02:14:32.944Z,12.40
2018-04-25T02:17:00.460Z,12.50
2018-04-25T02:19:28.214Z,12.50
2018-04-25T02:21:56.484Z,12.50
2018-04-25T02:24:24.768Z,12.50
2018-04-25T02:26:53.057Z,12.50
2018-04-25T02:29:20.579Z,12.50
2018-04-25T02:31:48.110Z,12.50
2018-04-25T02:34:15.661Z,12.50
2018-04-25T02:36:43.179Z,12.50
2018-04-25T02:39:11.449Z,12.60
2018-04-25T02:41:38.983Z,12.60
2018-04-25T02:44:06.485Z,12.60
2018-04-25T02:46:34.017Z,12.50
2018-04-25T02:49:01.535Z,12.50
2018-04-25T02:51:29.808Z,12.50
2018-04-25T02:53:57.326Z,12.50
2018-04-25T02:56:24.848Z,12.50
2018-04-25T02:58:53.176Z,12.50
2018-04-25T03:01:20.675Z,12.50
2018-04-25T03:03:48.206Z,12.50
2018-04-25T03:06:15.707Z,12.50
2018-04-25T03:08:43.217Z,12.50
2018-04-25T03:11:10.751Z,12.50
2018-04-25T03:13:39.025Z,12.50
2018-04-25T03:16:07.329Z,12.50
2018-04-25T03:18:34.839Z,12.50
2018-04-25T03:21:02.357Z,12.50
2018-04-25T03:23:29.878Z,12.50
2018-04-25T03:25:57.465Z,12.50
2018-04-25T03:28:24.937Z,12.50
2018-04-25T03:30:52.454Z,12.50
2018-04-25T03:33:19.968Z,12.50
2018-04-25T03:35:47.474Z,12.50
2018-04-25T03:38:14.990Z,12.40
2018-04-25T03:40:43.297Z,12.20
2018-04-25T03:43:10.814Z,12.20
2018-04-25T03:45:39.134Z,12.10
2018-04-25T03:48:06.656Z,12.10
2018-04-25T03:50:34.969Z,12.00
2018-04-25T03:53:02.484Z,12.00
2018-04-25T03:55:30.002Z,12.10
2018-04-25T03:57:57.521Z,12.10
2018-04-25T04:00:25.036Z,12.00
2018-04-25T04:02:52.561Z,11.90
2018-04-25T04:05:20.864Z,11.80
2018-04-25T04:07:48.373Z,11.80
2018-04-25T04:10:15.879Z,11.90
2018-04-25T04:12:44.178Z,11.90
2018-04-25T04:15:11.702Z,11.90
2018-04-25T04:17:39.229Z,12.00
2018-04-25T04:20:06.762Z,12.00
2018-04-25T04:22:34.339Z,12.00
2018-04-25T04:25:01.867Z,12.00
2018-04-25T04:27:29.376Z,12.00
2018-04-25T04:29:56.916Z,12.00
2018-04-25T04:32:24.444Z,12.00
2018-04-25T04:34:51.974Z,12.00
2018-04-25T04:37:19.486Z,12.10
2018-04-25T04:39:47.763Z,12.10
2018-04-25T04:42:15.288Z,12.00
2018-04-25T04:44:42.798Z,12.00
2018-04-25T04:47:11.077Z,12.00
2018-04-25T04:49:39.365Z,12.00
2018-04-25T04:52:07.668Z,12.00
2018-04-25T04:54:35.176Z,12.00
2018-04-25T04:57:02.714Z,12.00
2018-04-25T04:59:30.221Z,12.00
2018-04-25T05:01:57.824Z,12.00
2018-04-25T05:04:25.367Z,12.10
2018-04-25T05:06:53.651Z,12.20
2018-04-25T05:09:21.959Z,12.30
2018-04-25T05:11:49.495Z,12.30
2018-04-25T05:14:17.783Z,12.30
2018-04-25T05:16:45.312Z,12.30
2018-04-25T05:19:12.852Z,12.40
2018-04-25T05:21:40.390Z,12.40
2018-04-25T05:24:07.955Z,12.50
2018-04-25T05:26:35.471Z,12.50
2018-04-25T05:29:02.979Z,12.60
2018-04-25T05:31:30.507Z,12.70
2018-04-25T05:33:58.776Z,12.90
2018-04-25T05:36:26.295Z,12.90
2018-04-25T05:38:53.808Z,13.10
2018-04-25T05:41:21.341Z,13.40
2018-04-25T05:43:48.868Z,13.80
2018-04-25T05:46:16.388Z,14.20
2018-04-25T05:48:43.938Z,14.50
2018-04-25T05:51:11.465Z,14.60
2018-04-25T05:53:38.992Z,14.70
2018-04-25T05:56:06.511Z,14.70
2018-04-25T05:58:34.049Z,14.80
2018-04-25T06:01:02.321Z,14.90
2018-04-25T06:03:30.597Z,14.90
2018-04-25T06:05:58.877Z,15.00
2018-04-25T06:08:27.147Z,15.10
2018-04-25T06:10:54.847Z,15.10
2018-04-25T06:13:22.368Z,15.30
2018-04-25T06:15:49.864Z,15.40
2018-04-25T06:18:18.146Z,15.50
2018-04-25T06:20:46.431Z,15.60
2018-04-25T06:23:14.717Z,15.80
2018-04-25T06:25:42.235Z,15.70
2018-04-25T06:28:09.812Z,16.00
2018-04-25T06:30:37.305Z,16.10
2018-04-25T06:33:04.837Z,16.10
2018-04-25T06:35:32.369Z,16.30
2018-04-25T06:37:59.895Z,16.40
2018-04-25T06:40:27.428Z,16.50
2018-04-25T06:42:54.945Z,16.60
2018-04-25T06:45:22.461Z,16.70
2018-04-25T06:47:50.746Z,17.00
2018-04-25T06:50:19.026Z,17.20
2018-04-25T06:52:47.306Z,17.30
2018-04-25T06:55:15.598Z,17.40
2018-04-25T06:57:43.894Z,17.50
2018-04-25T07:00:11.400Z,17.50
2018-04-25T07:02:38.930Z,17.70
2018-04-25T07:05:06.444Z,17.90
2018-04-25T07:07:33.941Z,17.90
2018-04-25T07:10:02.247Z,18.10
2018-04-25T07:12:29.749Z,18.10
2018-04-25T07:14:57.277Z,18.30
2018-04-25T07:17:24.800Z,18.40
2018-04-25T07:19:53.081Z,18.60
2018-04-25T07:22:21.376Z,18.70
2018-04-25T07:24:48.882Z,18.70
2018-04-25T07:27:16.401Z,18.80
2018-04-25T07:29:44.697Z,19.00
2018-04-25T07:32:12.231Z,19.00
2018-04-25T07:34:40.513Z,19.20
2018-04-25T07:37:08.823Z,19.30
2018-04-25T07:39:36.337Z,19.30
2018-04-25T07:42:03.861Z,19.40
2018-04-25T07:44:31.411Z,19.40
2018-04-25T07:46:58.922Z,19.40
2018-04-25T07:49:26.444Z,19.40
2018-04-25T07:51:53.965Z,19.50
2018-04-25T07:54:21.506Z,19.50
2018-04-25T07:56:49.031Z,19.80
2018-04-25T07:59:16.543Z,19.80
2018-04-25T08:01:44.164Z,19.90
2018-04-25T08:04:11.674Z,20.10
2018-04-25T08:06:39.210Z,20.10
2018-04-25T08:09:06.740Z,20.20
2018-04-25T08:11:34.286Z,20.30
2018-04-25T08:14:14.594Z,20.30
2018-04-25T08:16:54.153Z,20.30
2018-04-25T08:19:33.471Z,20.30
2018-04-25T08:22:01.002Z,20.20
2018-04-25T08:24:29.288Z,20.40
2018-04-25T08:26:56.819Z,20.40
2018-04-25T08:29:25.120Z,20.30
2018-04-25T08:31:53.409Z,20.60
2018-04-25T08:34:20.993Z,20.60
2018-04-25T08:36:48.468Z,20.60
2018-04-25T08:39:16.083Z,20.80
2018-04-25T08:41:43.533Z,20.70
2018-04-25T08:44:11.051Z,20.70
2018-04-25T08:46:38.583Z,21.00
2018-04-25T08:49:06.876Z,21.50
2018-04-25T08:51:34.411Z,21.40
2018-04-25T08:54:02.697Z,21.70
2018-04-25T08:56:30.973Z,21.40
2018-04-25T08:58:59.255Z,21.60
2018-04-25T09:01:27.535Z,22.00
2018-04-25T09:03:55.830Z,22.20
2018-04-25T09:06:24.112Z,22.20
2018-04-25T09:08:52.408Z,22.30
2018-04-25T09:11:19.919Z,22.30
2018-04-25T09:13:47.436Z,22.00
2018-04-25T09:16:14.962Z,22.20
2018-04-25T09:18:42.481Z,22.50
2018-04-25T09:21:10.013Z,22.70
2018-04-25T09:23:38.288Z,22.30
2018-04-25T09:26:06.589Z,22.40
2018-04-25T09:28:34.096Z,22.40
2018-04-25T09:31:01.616Z,22.80
2018-04-25T09:33:29.172Z,22.90
2018-04-25T09:35:56.690Z,23.10
2018-04-25T09:38:24.214Z,23.30
2018-04-25T09:40:51.728Z,22.80
2018-04-25T09:43:19.272Z,23.10
2018-04-25T09:45:46.774Z,23.10
2018-04-25T09:48:15.053Z,23.30
2018-04-25T09:50:43.343Z,23.40
2018-04-25T09:53:11.627Z,23.20
2018-04-25T09:55:39.979Z,23.20
2018-04-25T09:58:07.463Z,23.20
2018-04-25T10:00:40.547Z,23.40
2018-04-25T10:03:14.443Z,23.60
2018-04-25T10:05:41.976Z,23.60
2018-04-25T10:08:09.485Z,23.30
2018-04-25T10:10:37.760Z,23.50
2018-04-25T10:13:05.304Z,23.50
2018-04-25T10:15:32.804Z,23.50
2018-04-25T10:18:01.088Z,23.80
2018-04-25T10:20:29.359Z,23.90
2018-04-25T10:22:57.672Z,24.30
2018-04-25T10:25:25.187Z,24.20
2018-04-25T10:27:52.709Z,24.30
2018-04-25T10:30:20.232Z,23.90
2018-04-25T10:32:48.499Z,24.10
2018-04-25T10:35:16.018Z,24.10
2018-04-25T10:37:43.524Z,24.40
2018-04-25T10:40:11.029Z,24.20
2018-04-25T10:42:38.597Z,24.30
2018-04-25T10:45:06.101Z,24.20
2018-04-25T10:47:33.632Z,23.80
2018-04-25T10:50:01.908Z,24.50
2018-04-25T10:52:29.443Z,24.40
2018-04-25T10:54:57.725Z,24.60
2018-04-25T10:57:26.027Z,24.80
2018-04-25T10:59:53.535Z,24.70
2018-04-25T11:02:21.060Z,24.50
2018-04-25T11:04:48.601Z,24.50
2018-04-25T11:07:16.878Z,25.50
2018-04-25T11:09:45.158Z,25.50
2018-04-25T11:12:13.428Z,24.90
2018-04-25T11:14:41.715Z,24.80
2018-04-25T11:17:09.995Z,24.60
2018-04-25T11:19:38.293Z,24.90
2018-04-25T11:22:05.816Z,24.90
2018-04-25T11:24:33.321Z,24.80
2018-04-25T11:27:00.847Z,24.70
2018-04-25T11:29:28.356Z,25.00
2018-04-25T11:31:55.899Z,25.00
2018-04-25T11:34:24.164Z,25.10
2018-04-25T11:36:52.455Z,25.30
2018-04-25T11:39:20.732Z,25.20
2018-04-25T11:41:49.023Z,25.40
2018-04-25T11:44:17.321Z,25.40
2018-04-25T11:46:44.836Z,25.40
2018-04-25T11:49:12.354Z,25.30
2018-04-25T11:51:39.858Z,25.60
2018-04-25T11:54:07.412Z,25.70
2018-04-25T11:56:34.928Z,25.50
2018-04-25T11:59:02.454Z,25.90
2018-04-25T12:01:29.965Z,25.90
2018-04-25T12:03:57.490Z,25.90
2018-04-25T12:06:25.020Z,25.20
2018-04-25T12:08:52.519Z,25.60
2018-04-25T12:11:20.814Z,26.00
2018-04-25T12:13:49.094Z,26.20
2018-04-25T12:16:17.396Z,26.40
2018-04-25T12:18:44.925Z,26.30
2018-04-25T12:21:12.453Z,26.50
2018-04-25T12:23:39.995Z,26.60
2018-04-25T12:26:07.514Z,26.40
2018-04-25T12:28:35.041Z,26.60
2018-04-25T12:31:02.560Z,26.60
2018-04-25T12:33:30.880Z,26.70
2018-04-25T12:35:59.158Z,26.40
2018-04-25T12:38:26.676Z,26.30
2018-04-25T12:40:54.980Z,25.90
2018-04-25T12:43:22.494Z,25.90
2018-04-25T12:45:50.026Z,26.10
2018-04-25T12:48:17.537Z,26.20
2018-04-25T12:50:45.070Z,26.20
2018-04-25T12:53:12.588Z,25.90
2018-04-25T12:55:40.893Z,25.40
2018-04-25T12:58:08.415Z,25.40
2018-04-25T13:00:35.947Z,25.40
2018-04-25T13:03:03.480Z,25.50
2018-04-25T13:05:31.008Z,25.70
2018-04-25T13:07:59.405Z,25.80
2018-04-25T13:10:27.688Z,26.00
2018-04-25T13:12:55.990Z,26.20
2018-04-25T13:15:23.520Z,26.10
2018-04-25T13:17:51.052Z,26.30
2018-04-25T13:20:18.601Z,26.30
2018-04-25T13:22:46.125Z,26.40
2018-04-25T13:25:14.428Z,25.80
2018-04-25T13:27:41.959Z,25.80
2018-04-25T13:30:10.274Z,25.20
2018-04-25T13:32:39.350Z,25.20
2018-04-25T13:35:06.898Z,25.40
2018-04-25T13:37:34.423Z,25.50
2018-04-25T13:40:01.932Z,25.50
2018-04-25T13:42:29.465Z,25.50
2018-04-25T13:44:56.999Z,25.10
2018-04-25T13:47:24.528Z,25.10
2018-04-25T13:49:52.798Z,25.10
2018-04-25T13:52:20.334Z,25.10
2018-04-25T13:54:47.857Z,24.90
2018-04-25T13:57:15.371Z,24.80
2018-04-25T13:59:42.902Z,24.90
2018-04-25T14:02:10.439Z,25.10
2018-04-25T14:04:39.456Z,25.20
2018-04-25T14:07:06.966Z,25.20
2018-04-25T14:09:34.494Z,25.20
2018-04-25T14:12:02.006Z,25.00
2018-04-25T14:14:29.536Z,25.00
2018-04-25T14:16:57.065Z,25.10
2018-04-25T14:19:24.605Z,25.30
2018-04-25T14:21:52.920Z,25.60
2018-04-25T14:24:20.436Z,25.60
2018-04-25T14:26:48.725Z,25.40
2018-04-25T14:29:16.257Z,25.40
2018-04-25T14:31:43.785Z,25.30
2018-04-25T14:34:11.318Z,24.80
2018-04-25T14:36:38.843Z,24.80
2018-04-25T14:39:06.417Z,24.90
2018-04-25T14:41:33.947Z,24.90
2018-04-25T14:44:01.489Z,24.90
2018-04-25T14:46:29.799Z,24.90
2018-04-25T14:48:57.305Z,24.90
2018-04-25T14:51:24.831Z,24.80
2018-04-25T14:53:52.353Z,24.70
2018-04-25T14:56:20.667Z,24.60
2018-04-25T14:58:48.176Z,24.60
2018-04-25T15:01:15.717Z,24.60
2018-04-25T15:03:43.235Z,24.30
2018-04-25T15:06:11.512Z,24.10
2018-04-25T15:08:39.823Z,24.10
2018-04-25T15:11:07.341Z,24.00
2018-04-25T15:13:34.903Z,24.00
2018-04-25T15:16:02.439Z,24.00
2018-04-25T15:18:29.944Z,24.00
2018-04-25T15:20:58.238Z,23.90
2018-04-25T15:23:26.533Z,24.00
2018-04-25T15:25:54.078Z,24.00
2018-04-25T15:28:22.358Z,24.00
2018-04-25T15:30:50.669Z,24.00
2018-04-25T15:33:18.183Z,24.00
2018-04-25T15:35:45.727Z,24.10
2018-04-25T15:38:13.257Z,24.00
2018-04-25T15:40:40.763Z,24.00
2018-04-25T15:43:08.311Z,24.00
2018-04-25T15:45:35.828Z,24.00
2018-04-25T15:48:04.130Z,24.00
2018-04-25T15:50:31.656Z,24.00
2018-04-25T15:52:59.191Z,23.80
2018-04-25T15:55:26.707Z,23.80
2018-04-25T15:57:54.281Z,23.90
2018-04-25T16:00:21.803Z,23.90
2018-04-25T16:02:49.325Z,23.90
2018-04-25T16:05:16.858Z,23.90
2018-04-25T16:07:45.139Z,23.90
2018-04-25T16:10:12.687Z,23.90
2018-04-25T16:12:41.003Z,23.90
2018-04-25T16:15:08.596Z,23.80
2018-04-25T16:17:36.128Z,23.70
2018-04-25T16:20:03.670Z,23.70
2018-04-25T16:22:32.123Z,23.70
2018-04-25T16:24:59.653Z,23.60
2018-04-25T16:27:27.229Z,23.60
2018-04-25T16:29:54.801Z,23.50
2018-04-25T16:32:22.359Z,23.50
2018-04-25T16:34:49.865Z,23.50
2018-04-25T16:37:18.181Z,23.50
2018-04-25T16:39:45.705Z,23.50
2018-04-25T16:42:13.268Z,23.60
2018-04-25T16:44:41.608Z,23.60
2018-04-25T16:47:09.184Z,23.60
2018-04-25T16:49:36.822Z,24.00
2018-04-25T16:52:04.360Z,24.60
2018-04-25T16:54:32.679Z,24.60
2018-04-25T16:57:00.207Z,24.50
2018-04-25T16:59:28.490Z,24.20
2018-04-25T17:01:56.789Z,24.20
2018-04-25T17:04:24.319Z,24.20
2018-04-25T17:06:51.861Z,24.20
2018-04-25T17:09:19.365Z,24.00
2018-04-25T17:11:46.937Z,23.70
2018-04-25T17:14:14.468Z,23.40
2018-04-25T17:16:42.013Z,23.10
2018-04-25T17:19:09.595Z,23.00
2018-04-25T17:21:37.123Z,22.70
2018-04-25T17:24:04.671Z,22.50
2018-04-25T17:26:32.207Z,22.40
2018-04-25T17:29:00.515Z,22.10
2018-04-25T17:31:28.065Z,22.10
2018-04-25T17:33:55.608Z,22.00
2018-04-25T17:36:23.897Z,21.90
2018-04-25T17:38:51.452Z,21.80
2018-04-25T17:41:18.998Z,21.80
2018-04-25T17:43:46.608Z,21.70
2018-04-25T17:46:14.116Z,21.70
2018-04-25T17:48:41.669Z,21.80
2018-04-25T17:51:09.964Z,21.70
2018-04-25T17:53:37.504Z,21.60
2018-04-25T17:56:05.031Z,21.50
2018-04-25T17:58:33.326Z,21.40
2018-04-25T18:01:01.623Z,21.30
2018-04-25T18:03:29.243Z,21.30
2018-04-25T18:05:56.777Z,21.10
2018-04-25T18:08:24.312Z,21.20
2018-04-25T18:10:51.848Z,21.20
2018-04-25T18:13:20.158Z,21.20
2018-04-25T18:15:47.758Z,21.20
2018-04-25T18:18:15.301Z,21.20
2018-04-25T18:20:42.812Z,21.00
2018-04-25T18:23:10.345Z,21.00
2018-04-25T18:25:37.898Z,21.00
2018-04-25T18:28:05.418Z,21.00
2018-04-25T18:30:33.740Z,20.90
2018-04-25T18:33:01.307Z,20.80
2018-04-25T18:35:28.930Z,20.90
2018-04-25T18:37:57.225Z,20.90
2018-04-25T18:40:25.581Z,20.80
2018-04-25T18:42:53.134Z,20.80
2018-04-25T18:45:20.707Z,20.80
2018-04-25T18:47:48.294Z,20.80
2018-04-25T18:50:16.664Z,20.80
2018-04-25T18:52:45.076Z,20.70
2018-04-25T18:55:13.237Z,20.60
2018-04-25T18:57:42.139Z,20.60
2018-04-25T19:00:09.703Z,20.60
2018-04-25T19:02:38.126Z,20.60
2018-04-25T19:05:06.528Z,20.60
2018-04-25T19:07:34.279Z,20.60
2018-04-25T19:10:02.136Z,20.60
2018-04-25T19:12:29.909Z,20.40
2018-04-25T19:14:57.664Z,20.30
2018-04-25T19:17:25.259Z,20.20
2018-04-25T19:19:54.142Z,20.10
2018-04-25T19:22:21.740Z,20.10
2018-04-25T19:24:50.117Z,20.00
2018-04-25T19:27:17.722Z,20.00
2018-04-25T19:29:46.050Z,19.90
2018-04-25T19:32:13.679Z,19.90
2018-04-25T19:34:42.332Z,19.90
2018-04-25T19:37:10.765Z,19.80
2018-04-25T19:39:38.449Z,19.80
2018-04-25T19:42:06.426Z,19.70
2018-04-25T19:44:34.077Z,19.70
2018-04-25T19:47:01.646Z,19.60
2018-04-25T19:49:29.246Z,19.70
2018-04-25T19:51:56.971Z,19.70
2018-04-25T19:54:24.550Z,19.60
2018-04-25T19:56:52.865Z,19.60
2018-04-25T19:59:21.191Z,19.50
2018-04-25T20:01:48.861Z,19.50
2018-04-25T20:04:16.536Z,19.50
2018-04-25T20:06:44.117Z,19.50
2018-04-25T20:09:11.761Z,19.50
2018-04-25T20:11:39.359Z,19.40
2018-04-25T20:14:06.930Z,19.40
2018-04-25T20:16:34.485Z,19.40
2018-04-25T20:19:02.044Z,19.30
2018-04-25T20:21:29.599Z,19.30
2018-04-25T20:23:57.172Z,19.20
2018-04-25T20:26:24.728Z,19.10
2018-04-25T20:28:52.409Z,19.00
2018-04-25T20:31:19.964Z,19.00
2018-04-25T20:33:47.531Z,18.90
2018-04-25T20:36:15.184Z,18.90
2018-04-25T20:38:42.794Z,18.80
2018-04-25T20:41:10.338Z,18.80
2018-04-25T20:43:37.882Z,18.80
2018-04-25T20:46:05.411Z,18.70
2018-04-25T20:48:33.700Z,18.30
2018-04-25T20:51:01.283Z,18.30
2018-04-25T20:53:28.809Z,17.90
2018-04-25T20:55:56.321Z,17.90
2018-04-25T20:58:23.849Z,17.90
2018-04-25T21:00:52.162Z,17.70
2018-04-25T21:03:19.704Z,17.70
2018-04-25T21:05:47.233Z,17.70
2018-04-25T21:08:14.760Z,17.70
2018-04-25T21:10:42.308Z,17.70
2018-04-25T21:13:09.833Z,17.50
2018-04-25T21:15:37.375Z,17.40
2018-04-25T21:18:04.895Z,17.40
2018-04-25T21:20:32.416Z,17.40
2018-04-25T21:22:59.939Z,17.30
2018-04-25T21:25:27.465Z,17.20
2018-04-25T21:27:55.764Z,17.20
2018-04-25T21:30:23.272Z,17.10
2018-04-25T21:32:50.806Z,17.10
2018-04-25T21:35:18.319Z,17.10
2018-04-25T21:37:45.840Z,17.00
2018-04-25T21:40:13.384Z,17.00
2018-04-25T21:42:40.959Z,17.10
2018-04-25T21:45:08.485Z,17.10
2018-04-25T21:47:36.000Z,16.80
2018-04-25T21:50:03.543Z,16.70
2018-04-25T21:52:31.073Z,16.70
2018-04-25T21:54:59.362Z,16.40
2018-04-25T21:57:27.666Z,16.30
2018-04-25T21:59:55.188Z,16.30
2018-04-25T22:02:23.507Z,16.30
2018-04-25T22:04:51.083Z,16.20
2018-04-25T22:07:18.588Z,16.20
2018-04-25T22:09:46.120Z,16.20
2018-04-25T22:12:13.644Z,16.10
2018-04-25T22:14:41.940Z,16.10
2018-04-25T22:17:10.224Z,16.10
2018-04-25T22:19:38.501Z,16.00
2018-04-25T22:22:06.779Z,16.00
2018-04-25T22:24:35.055Z,15.90
2018-04-25T22:27:03.354Z,15.90
2018-04-25T22:29:30.861Z,15.90
2018-04-25T22:31:58.391Z,16.00
2018-04-25T22:34:25.911Z,16.00
2018-04-25T22:36:54.205Z,15.90
2018-04-25T22:39:22.518Z,15.90
2018-04-25T22:41:50.025Z,15.80
2018-04-25T22:44:17.560Z,15.80
2018-04-25T22:46:45.084Z,15.80
2018-04-25T22:49:13.363Z,15.50
2018-04-25T22:51:41.651Z,15.40
2018-04-25T22:54:09.948Z,15.30
2018-04-25T22:56:37.461Z,15.30
2018-04-25T22:59:04.977Z,15.30
2018-04-25T23:01:32.501Z,15.40
2018-04-25T23:04:00.004Z,15.40
2018-04-25T23:06:27.540Z,15.40
2018-04-25T23:08:55.815Z,15.30
2018-04-25T23:11:24.123Z,15.40
2018-04-25T23:13:51.653Z,15.30
2018-04-25T23:16:19.172Z,15.40
2018-04-25T23:18:46.700Z,15.40
2018-04-25T23:21:14.979Z,15.30
2018-04-25T23:23:43.279Z,15.30
2018-04-25T23:26:10.803Z,15.30
2018-04-25T23:28:38.336Z,15.30
2018-04-25T23:31:05.870Z,15.30
2018-04-25T23:33:33.437Z,15.30
2018-04-25T23:36:00.951Z,15.30
2018-04-25T23:38:28.475Z,15.40
2018-04-25T23:40:56.012Z,15.50
2018-04-25T23:43:24.293Z,15.50
2018-04-25T23:45:52.575Z,15.40
2018-04-25T23:48:20.106Z,15.40
2018-04-25T23:50:47.608Z,15.30
2018-04-25T23:53:15.140Z,15.30
2018-04-25T23:55:42.750Z,15.20
2018-04-25T23:58:10.297Z,15.20
